sensor_id;sensor_type;location;lat;lon;timestamp;P1;durP1;ratioP1;P2;durP2;ratioP2
31798;SDS011;18374;51.136;3.502;2023-11-18T00:01:10;7.13;;;4.30;;
31798;SDS011;18374;51.136;3.502;2023-11-18T00:03:39;22.45;;;6.03;;
31798;SDS011;18374;51.136;3.502;2023-11-18T00:06:08;8.02;;;4.70;;
31798;SDS011;18374;51.136;3.502;2023-11-18T00:08:37;6.88;;;3.70;;
31798;SDS011;18374;51.136;3.502;2023-11-18T00:11:06;10.02;;;4.35;;
31798;SDS011;18374;51.136;3.502;2023-11-18T00:13:36;11.60;;;4.75;;
31798;SDS011;18374;51.136;3.502;2023-11-18T00:16:06;6.05;;;4.10;;
31798;SDS011;18374;51.136;3.502;2023-11-18T00:18:39;7.07;;;4.88;;
31798;SDS011;18374;51.136;3.502;2023-11-18T00:21:11;7.90;;;4.15;;
31798;SDS011;18374;51.136;3.502;2023-11-18T00:23:40;7.28;;;3.85;;
31798;SDS011;18374;51.136;3.502;2023-11-18T00:26:09;9.00;;;4.55;;
31798;SDS011;18374;51.136;3.502;2023-11-18T00:28:42;9.10;;;3.75;;
31798;SDS011;18374;51.136;3.502;2023-11-18T00:31:11;9.95;;;3.70;;
31798;SDS011;18374;51.136;3.502;2023-11-18T00:33:40;10.68;;;4.22;;
31798;SDS011;18374;51.136;3.502;2023-11-18T00:36:09;8.93;;;3.95;;
31798;SDS011;18374;51.136;3.502;2023-11-18T00:38:38;9.18;;;4.78;;
31798;SDS011;18374;51.136;3.502;2023-11-18T00:41:07;5.13;;;3.95;;
31798;SDS011;18374;51.136;3.502;2023-11-18T00:43:36;5.80;;;3.67;;
31798;SDS011;18374;51.136;3.502;2023-11-18T00:46:05;6.78;;;3.50;;
31798;SDS011;18374;51.136;3.502;2023-11-18T00:48:34;23.15;;;4.68;;
31798;SDS011;18374;51.136;3.502;2023-11-18T00:51:03;5.70;;;3.72;;
31798;SDS011;18374;51.136;3.502;2023-11-18T00:53:33;6.57;;;4.15;;
31798;SDS011;18374;51.136;3.502;2023-11-18T00:56:02;7.55;;;3.85;;
31798;SDS011;18374;51.136;3.502;2023-11-18T00:58:35;20.98;;;4.03;;
31798;SDS011;18374;51.136;3.502;2023-11-18T01:01:07;8.32;;;3.50;;
31798;SDS011;18374;51.136;3.502;2023-11-18T01:03:37;19.58;;;4.47;;
31798;SDS011;18374;51.136;3.502;2023-11-18T01:06:06;6.18;;;3.85;;
31798;SDS011;18374;51.136;3.502;2023-11-18T01:08:35;4.47;;;3.03;;
31798;SDS011;18374;51.136;3.502;2023-11-18T01:11:04;4.80;;;3.08;;
31798;SDS011;18374;51.136;3.502;2023-11-18T01:13:33;7.00;;;3.17;;
31798;SDS011;18374;51.136;3.502;2023-11-18T01:16:02;8.52;;;3.72;;
31798;SDS011;18374;51.136;3.502;2023-11-18T01:18:32;7.43;;;2.65;;
31798;SDS011;18374;51.136;3.502;2023-11-18T01:21:01;10.13;;;3.88;;
31798;SDS011;18374;51.136;3.502;2023-11-18T01:23:32;17.70;;;3.20;;
31798;SDS011;18374;51.136;3.502;2023-11-18T01:26:05;9.32;;;3.63;;
31798;SDS011;18374;51.136;3.502;2023-11-18T01:28:35;4.75;;;3.05;;
31798;SDS011;18374;51.136;3.502;2023-11-18T01:31:09;4.78;;;3.03;;
31798;SDS011;18374;51.136;3.502;2023-11-18T01:33:38;4.25;;;2.85;;
31798;SDS011;18374;51.136;3.502;2023-11-18T01:36:08;9.63;;;3.55;;
31798;SDS011;18374;51.136;3.502;2023-11-18T01:38:38;13.20;;;3.22;;
31798;SDS011;18374;51.136;3.502;2023-11-18T01:41:07;10.00;;;3.25;;
31798;SDS011;18374;51.136;3.502;2023-11-18T01:43:36;20.77;;;3.85;;
31798;SDS011;18374;51.136;3.502;2023-11-18T01:46:08;5.55;;;3.20;;
31798;SDS011;18374;51.136;3.502;2023-11-18T01:48:40;10.85;;;3.53;;
31798;SDS011;18374;51.136;3.502;2023-11-18T01:51:09;11.18;;;3.97;;
31798;SDS011;18374;51.136;3.502;2023-11-18T01:53:39;14.98;;;3.05;;
31798;SDS011;18374;51.136;3.502;2023-11-18T01:56:09;9.73;;;3.10;;
31798;SDS011;18374;51.136;3.502;2023-11-18T01:58:38;5.32;;;2.30;;
31798;SDS011;18374;51.136;3.502;2023-11-18T02:01:08;5.75;;;2.90;;
31798;SDS011;18374;51.136;3.502;2023-11-18T02:03:37;3.20;;;2.20;;
31798;SDS011;18374;51.136;3.502;2023-11-18T02:06:09;9.23;;;2.70;;
31798;SDS011;18374;51.136;3.502;2023-11-18T02:08:38;5.30;;;2.47;;
31798;SDS011;18374;51.136;3.502;2023-11-18T02:11:10;4.97;;;2.85;;
31798;SDS011;18374;51.136;3.502;2023-11-18T02:14:00;6.75;;;2.97;;
31798;SDS011;18374;51.136;3.502;2023-11-18T02:16:30;5.78;;;2.92;;
31798;SDS011;18374;51.136;3.502;2023-11-18T02:19:00;5.68;;;2.97;;
31798;SDS011;18374;51.136;3.502;2023-11-18T02:21:33;10.32;;;2.25;;
31798;SDS011;18374;51.136;3.502;2023-11-18T02:24:04;3.97;;;2.35;;
31798;SDS011;18374;51.136;3.502;2023-11-18T02:26:33;4.13;;;2.58;;
31798;SDS011;18374;51.136;3.502;2023-11-18T02:29:02;4.65;;;2.85;;
31798;SDS011;18374;51.136;3.502;2023-11-18T02:31:33;3.08;;;2.33;;
31798;SDS011;18374;51.136;3.502;2023-11-18T02:34:05;10.00;;;2.67;;
31798;SDS011;18374;51.136;3.502;2023-11-18T02:36:46;8.88;;;3.13;;
31798;SDS011;18374;51.136;3.502;2023-11-18T02:39:27;4.13;;;2.13;;
31798;SDS011;18374;51.136;3.502;2023-11-18T02:42:06;3.25;;;2.38;;
31798;SDS011;18374;51.136;3.502;2023-11-18T02:44:38;5.18;;;2.70;;
31798;SDS011;18374;51.136;3.502;2023-11-18T02:47:07;7.35;;;3.65;;
31798;SDS011;18374;51.136;3.502;2023-11-18T02:49:37;10.90;;;3.28;;
31798;SDS011;18374;51.136;3.502;2023-11-18T02:52:06;11.25;;;2.42;;
31798;SDS011;18374;51.136;3.502;2023-11-18T02:54:37;16.45;;;3.47;;
31798;SDS011;18374;51.136;3.502;2023-11-18T02:57:06;8.68;;;2.88;;
31798;SDS011;18374;51.136;3.502;2023-11-18T02:59:35;4.80;;;2.88;;
31798;SDS011;18374;51.136;3.502;2023-11-18T03:02:04;8.85;;;3.15;;
31798;SDS011;18374;51.136;3.502;2023-11-18T03:04:33;4.72;;;2.47;;
31798;SDS011;18374;51.136;3.502;2023-11-18T03:07:03;9.40;;;3.45;;
31798;SDS011;18374;51.136;3.502;2023-11-18T03:09:33;7.25;;;2.53;;
31798;SDS011;18374;51.136;3.502;2023-11-18T03:12:03;3.55;;;2.70;;
31798;SDS011;18374;51.136;3.502;2023-11-18T03:14:34;3.30;;;2.65;;
31798;SDS011;18374;51.136;3.502;2023-11-18T03:17:04;3.47;;;2.50;;
31798;SDS011;18374;51.136;3.502;2023-11-18T03:19:33;15.43;;;2.45;;
31798;SDS011;18374;51.136;3.502;2023-11-18T03:22:02;4.20;;;2.42;;
31798;SDS011;18374;51.136;3.502;2023-11-18T03:24:32;5.75;;;1.77;;
31798;SDS011;18374;51.136;3.502;2023-11-18T03:27:00;3.03;;;2.35;;
31798;SDS011;18374;51.136;3.502;2023-11-18T03:29:30;11.73;;;2.97;;
31798;SDS011;18374;51.136;3.502;2023-11-18T03:31:59;9.80;;;3.63;;
31798;SDS011;18374;51.136;3.502;2023-11-18T03:34:28;10.18;;;3.35;;
31798;SDS011;18374;51.136;3.502;2023-11-18T03:36:57;5.53;;;2.45;;
31798;SDS011;18374;51.136;3.502;2023-11-18T03:39:26;6.50;;;2.08;;
31798;SDS011;18374;51.136;3.502;2023-11-18T03:41:55;12.00;;;2.63;;
31798;SDS011;18374;51.136;3.502;2023-11-18T03:44:25;5.82;;;2.25;;
31798;SDS011;18374;51.136;3.502;2023-11-18T03:46:54;8.88;;;3.05;;
31798;SDS011;18374;51.136;3.502;2023-11-18T03:49:23;10.68;;;3.35;;
31798;SDS011;18374;51.136;3.502;2023-11-18T03:51:52;3.35;;;2.00;;
31798;SDS011;18374;51.136;3.502;2023-11-18T03:54:21;16.10;;;3.25;;
31798;SDS011;18374;51.136;3.502;2023-11-18T03:56:52;8.68;;;2.33;;
31798;SDS011;18374;51.136;3.502;2023-11-18T03:59:34;2.20;;;1.98;;
31798;SDS011;18374;51.136;3.502;2023-11-18T04:02:04;11.00;;;2.30;;
31798;SDS011;18374;51.136;3.502;2023-11-18T04:04:34;8.85;;;1.92;;
31798;SDS011;18374;51.136;3.502;2023-11-18T04:07:09;2.05;;;1.38;;
31798;SDS011;18374;51.136;3.502;2023-11-18T04:09:47;2.17;;;1.58;;
31798;SDS011;18374;51.136;3.502;2023-11-18T04:12:18;8.10;;;1.85;;
31798;SDS011;18374;51.136;3.502;2023-11-18T04:14:47;7.65;;;3.50;;
31798;SDS011;18374;51.136;3.502;2023-11-18T04:17:16;8.23;;;1.98;;
31798;SDS011;18374;51.136;3.502;2023-11-18T04:19:45;6.80;;;2.38;;
31798;SDS011;18374;51.136;3.502;2023-11-18T04:22:15;11.35;;;1.67;;
31798;SDS011;18374;51.136;3.502;2023-11-18T04:24:46;12.13;;;1.77;;
31798;SDS011;18374;51.136;3.502;2023-11-18T04:27:24;10.70;;;1.95;;
31798;SDS011;18374;51.136;3.502;2023-11-18T04:29:52;7.50;;;1.75;;
31798;SDS011;18374;51.136;3.502;2023-11-18T04:32:53;2.92;;;1.48;;
31798;SDS011;18374;51.136;3.502;2023-11-18T04:36:02;2.53;;;1.27;;
31798;SDS011;18374;51.136;3.502;2023-11-18T04:38:32;13.13;;;2.15;;
31798;SDS011;18374;51.136;3.502;2023-11-18T04:41:04;3.78;;;2.45;;
31798;SDS011;18374;51.136;3.502;2023-11-18T04:43:39;2.25;;;1.40;;
31798;SDS011;18374;51.136;3.502;2023-11-18T04:46:12;7.95;;;2.22;;
31798;SDS011;18374;51.136;3.502;2023-11-18T04:49:22;3.22;;;1.75;;
31798;SDS011;18374;51.136;3.502;2023-11-18T04:52:32;2.97;;;1.80;;
31798;SDS011;18374;51.136;3.502;2023-11-18T04:55:42;2.47;;;1.60;;
31798;SDS011;18374;51.136;3.502;2023-11-18T04:58:52;1.90;;;0.98;;
31798;SDS011;18374;51.136;3.502;2023-11-18T05:02:02;2.83;;;1.50;;
31798;SDS011;18374;51.136;3.502;2023-11-18T05:05:16;3.38;;;1.30;;
31798;SDS011;18374;51.136;3.502;2023-11-18T05:08:26;4.45;;;1.63;;
31798;SDS011;18374;51.136;3.502;2023-11-18T05:11:36;1.50;;;1.05;;
31798;SDS011;18374;51.136;3.502;2023-11-18T05:14:45;13.30;;;1.40;;
31798;SDS011;18374;51.136;3.502;2023-11-18T05:17:57;7.13;;;1.55;;
31798;SDS011;18374;51.136;3.502;2023-11-18T05:21:08;0.60;;;0.57;;
31798;SDS011;18374;51.136;3.502;2023-11-18T05:24:17;2.13;;;0.82;;
31798;SDS011;18374;51.136;3.502;2023-11-18T05:27:28;1.90;;;1.45;;
31798;SDS011;18374;51.136;3.502;2023-11-18T05:30:40;2.22;;;1.05;;
31798;SDS011;18374;51.136;3.502;2023-11-18T05:33:50;4.32;;;1.20;;
31798;SDS011;18374;51.136;3.502;2023-11-18T05:37:02;5.45;;;1.48;;
31798;SDS011;18374;51.136;3.502;2023-11-18T05:40:14;1.80;;;1.02;;
31798;SDS011;18374;51.136;3.502;2023-11-18T05:43:32;8.38;;;1.13;;
31798;SDS011;18374;51.136;3.502;2023-11-18T05:46:46;8.25;;;0.80;;
31798;SDS011;18374;51.136;3.502;2023-11-18T05:49:58;1.52;;;0.90;;
31798;SDS011;18374;51.136;3.502;2023-11-18T05:53:14;6.30;;;0.85;;
31798;SDS011;18374;51.136;3.502;2023-11-18T05:56:27;8.50;;;2.65;;
31798;SDS011;18374;51.136;3.502;2023-11-18T05:59:46;3.22;;;1.90;;
31798;SDS011;18374;51.136;3.502;2023-11-18T06:03:08;2.05;;;1.23;;
31798;SDS011;18374;51.136;3.502;2023-11-18T06:06:24;1.08;;;0.88;;
31798;SDS011;18374;51.136;3.502;2023-11-18T06:09:43;1.65;;;0.82;;
31798;SDS011;18374;51.136;3.502;2023-11-18T06:12:59;1.70;;;1.30;;
31798;SDS011;18374;51.136;3.502;2023-11-18T06:15:58;5.65;;;1.58;;
31798;SDS011;18374;51.136;3.502;2023-11-18T06:18:32;14.43;;;1.48;;
31798;SDS011;18374;51.136;3.502;2023-11-18T06:21:00;1.42;;;0.98;;
31798;SDS011;18374;51.136;3.502;2023-11-18T06:23:28;1.05;;;0.85;;
31798;SDS011;18374;51.136;3.502;2023-11-18T06:25:59;4.47;;;1.20;;
31798;SDS011;18374;51.136;3.502;2023-11-18T06:28:28;5.22;;;2.30;;
31798;SDS011;18374;51.136;3.502;2023-11-18T06:30:56;2.97;;;0.80;;
31798;SDS011;18374;51.136;3.502;2023-11-18T06:33:24;7.20;;;2.28;;
31798;SDS011;18374;51.136;3.502;2023-11-18T06:35:54;1.13;;;0.80;;
31798;SDS011;18374;51.136;3.502;2023-11-18T06:38:23;2.85;;;1.83;;
31798;SDS011;18374;51.136;3.502;2023-11-18T06:40:51;3.60;;;0.98;;
31798;SDS011;18374;51.136;3.502;2023-11-18T06:43:19;2.35;;;1.17;;
31798;SDS011;18374;51.136;3.502;2023-11-18T06:45:48;5.75;;;0.88;;
31798;SDS011;18374;51.136;3.502;2023-11-18T06:48:16;4.13;;;1.60;;
31798;SDS011;18374;51.136;3.502;2023-11-18T06:50:47;14.25;;;2.10;;
31798;SDS011;18374;51.136;3.502;2023-11-18T06:53:15;3.95;;;1.70;;
31798;SDS011;18374;51.136;3.502;2023-11-18T06:55:43;6.18;;;2.17;;
31798;SDS011;18374;51.136;3.502;2023-11-18T06:58:12;1.95;;;1.52;;
31798;SDS011;18374;51.136;3.502;2023-11-18T07:00:40;3.47;;;1.73;;
31798;SDS011;18374;51.136;3.502;2023-11-18T07:03:09;2.80;;;1.60;;
31798;SDS011;18374;51.136;3.502;2023-11-18T07:05:39;14.05;;;1.85;;
31798;SDS011;18374;51.136;3.502;2023-11-18T07:08:07;10.38;;;1.55;;
31798;SDS011;18374;51.136;3.502;2023-11-18T07:10:35;5.43;;;1.45;;
31798;SDS011;18374;51.136;3.502;2023-11-18T07:13:05;2.08;;;1.73;;
31798;SDS011;18374;51.136;3.502;2023-11-18T07:15:35;2.47;;;1.73;;
31798;SDS011;18374;51.136;3.502;2023-11-18T07:18:04;8.40;;;1.40;;
31798;SDS011;18374;51.136;3.502;2023-11-18T07:20:33;5.07;;;1.50;;
31798;SDS011;18374;51.136;3.502;2023-11-18T07:23:01;5.30;;;2.30;;
31798;SDS011;18374;51.136;3.502;2023-11-18T07:25:29;2.88;;;1.88;;
31798;SDS011;18374;51.136;3.502;2023-11-18T07:27:57;9.35;;;3.17;;
31798;SDS011;18374;51.136;3.502;2023-11-18T07:30:26;8.35;;;2.67;;
31798;SDS011;18374;51.136;3.502;2023-11-18T07:32:54;8.80;;;2.15;;
31798;SDS011;18374;51.136;3.502;2023-11-18T07:35:26;4.95;;;2.42;;
31798;SDS011;18374;51.136;3.502;2023-11-18T07:37:54;11.43;;;2.83;;
31798;SDS011;18374;51.136;3.502;2023-11-18T07:40:22;2.47;;;2.00;;
31798;SDS011;18374;51.136;3.502;2023-11-18T07:42:55;6.97;;;1.90;;
31798;SDS011;18374;51.136;3.502;2023-11-18T07:45:23;8.20;;;2.90;;
31798;SDS011;18374;51.136;3.502;2023-11-18T07:47:51;4.80;;;1.45;;
31798;SDS011;18374;51.136;3.502;2023-11-18T07:50:21;8.50;;;2.70;;
31798;SDS011;18374;51.136;3.502;2023-11-18T07:52:49;4.32;;;2.75;;
31798;SDS011;18374;51.136;3.502;2023-11-18T07:55:17;18.95;;;3.38;;
31798;SDS011;18374;51.136;3.502;2023-11-18T07:57:46;6.40;;;2.78;;
31798;SDS011;18374;51.136;3.502;2023-11-18T08:00:14;5.20;;;1.92;;
31798;SDS011;18374;51.136;3.502;2023-11-18T08:02:42;3.85;;;1.55;;
31798;SDS011;18374;51.136;3.502;2023-11-18T08:05:12;5.68;;;2.10;;
31798;SDS011;18374;51.136;3.502;2023-11-18T08:07:46;2.10;;;1.65;;
31798;SDS011;18374;51.136;3.502;2023-11-18T08:10:14;6.88;;;2.22;;
31798;SDS011;18374;51.136;3.502;2023-11-18T08:12:46;1.85;;;1.30;;
31798;SDS011;18374;51.136;3.502;2023-11-18T08:15:14;8.60;;;1.75;;
31798;SDS011;18374;51.136;3.502;2023-11-18T08:17:42;5.10;;;2.08;;
31798;SDS011;18374;51.136;3.502;2023-11-18T08:20:10;5.03;;;1.42;;
31798;SDS011;18374;51.136;3.502;2023-11-18T08:22:41;8.20;;;1.70;;
31798;SDS011;18374;51.136;3.502;2023-11-18T08:25:13;5.78;;;1.58;;
31798;SDS011;18374;51.136;3.502;2023-11-18T08:27:42;3.25;;;2.05;;
31798;SDS011;18374;51.136;3.502;2023-11-18T08:30:12;12.30;;;2.30;;
31798;SDS011;18374;51.136;3.502;2023-11-18T08:32:41;4.75;;;2.00;;
31798;SDS011;18374;51.136;3.502;2023-11-18T08:35:12;10.80;;;2.45;;
31798;SDS011;18374;51.136;3.502;2023-11-18T08:37:41;6.65;;;1.75;;
31798;SDS011;18374;51.136;3.502;2023-11-18T08:40:10;7.30;;;1.60;;
31798;SDS011;18374;51.136;3.502;2023-11-18T08:42:49;5.93;;;2.13;;
31798;SDS011;18374;51.136;3.502;2023-11-18T08:45:19;8.50;;;1.33;;
31798;SDS011;18374;51.136;3.502;2023-11-18T08:48:00;1.80;;;1.52;;
31798;SDS011;18374;51.136;3.502;2023-11-18T08:50:34;8.85;;;2.22;;
31798;SDS011;18374;51.136;3.502;2023-11-18T08:53:03;13.95;;;1.65;;
31798;SDS011;18374;51.136;3.502;2023-11-18T08:55:32;7.18;;;1.67;;
31798;SDS011;18374;51.136;3.502;2023-11-18T08:58:00;10.82;;;2.28;;
31798;SDS011;18374;51.136;3.502;2023-11-18T09:00:31;4.50;;;2.03;;
31798;SDS011;18374;51.136;3.502;2023-11-18T09:03:15;5.70;;;1.30;;
31798;SDS011;18374;51.136;3.502;2023-11-18T09:05:45;7.05;;;2.25;;
31798;SDS011;18374;51.136;3.502;2023-11-18T09:08:27;4.18;;;2.33;;
31798;SDS011;18374;51.136;3.502;2023-11-18T09:10:59;2.63;;;1.52;;
31798;SDS011;18374;51.136;3.502;2023-11-18T09:13:32;1.73;;;1.15;;
31798;SDS011;18374;51.136;3.502;2023-11-18T09:16:05;2.65;;;1.42;;
31798;SDS011;18374;51.136;3.502;2023-11-18T09:18:37;2.80;;;1.45;;
31798;SDS011;18374;51.136;3.502;2023-11-18T09:21:09;14.57;;;2.20;;
31798;SDS011;18374;51.136;3.502;2023-11-18T09:23:50;5.82;;;1.95;;
31798;SDS011;18374;51.136;3.502;2023-11-18T09:26:18;5.57;;;1.67;;
31798;SDS011;18374;51.136;3.502;2023-11-18T09:28:48;5.18;;;1.85;;
31798;SDS011;18374;51.136;3.502;2023-11-18T09:31:20;2.53;;;1.13;;
31798;SDS011;18374;51.136;3.502;2023-11-18T09:33:48;11.73;;;2.53;;
31798;SDS011;18374;51.136;3.502;2023-11-18T09:36:20;3.15;;;1.25;;
31798;SDS011;18374;51.136;3.502;2023-11-18T09:38:50;1.75;;;1.65;;
31798;SDS011;18374;51.136;3.502;2023-11-18T09:41:20;6.70;;;2.17;;
31798;SDS011;18374;51.136;3.502;2023-11-18T09:43:54;4.18;;;1.67;;
31798;SDS011;18374;51.136;3.502;2023-11-18T09:46:28;2.70;;;1.73;;
31798;SDS011;18374;51.136;3.502;2023-11-18T09:51:43;2.83;;;1.50;;
31798;SDS011;18374;51.136;3.502;2023-11-18T09:56:59;1.50;;;1.30;;
31798;SDS011;18374;51.136;3.502;2023-11-18T09:59:39;9.50;;;1.77;;
31798;SDS011;18374;51.136;3.502;2023-11-18T10:02:25;2.47;;;1.38;;
31798;SDS011;18374;51.136;3.502;2023-11-18T10:04:53;1.48;;;1.00;;
31798;SDS011;18374;51.136;3.502;2023-11-18T10:07:25;3.35;;;1.45;;
31798;SDS011;18374;51.136;3.502;2023-11-18T10:09:54;8.05;;;2.05;;
31798;SDS011;18374;51.136;3.502;2023-11-18T10:12:26;1.58;;;1.13;;
31798;SDS011;18374;51.136;3.502;2023-11-18T10:14:54;1.75;;;1.33;;
31798;SDS011;18374;51.136;3.502;2023-11-18T10:17:23;2.33;;;1.33;;
31798;SDS011;18374;51.136;3.502;2023-11-18T10:19:54;9.13;;;1.67;;
31798;SDS011;18374;51.136;3.502;2023-11-18T10:22:24;2.55;;;1.08;;
31798;SDS011;18374;51.136;3.502;2023-11-18T10:24:55;5.88;;;2.83;;
31798;SDS011;18374;51.136;3.502;2023-11-18T10:27:24;1.17;;;1.08;;
31798;SDS011;18374;51.136;3.502;2023-11-18T10:29:57;1.98;;;1.55;;
31798;SDS011;18374;51.136;3.502;2023-11-18T10:32:29;3.17;;;1.38;;
31798;SDS011;18374;51.136;3.502;2023-11-18T10:35:03;2.33;;;1.23;;
31798;SDS011;18374;51.136;3.502;2023-11-18T10:37:36;1.52;;;1.30;;
31798;SDS011;18374;51.136;3.502;2023-11-18T10:40:10;1.70;;;1.60;;
31798;SDS011;18374;51.136;3.502;2023-11-18T10:42:41;1.55;;;1.23;;
31798;SDS011;18374;51.136;3.502;2023-11-18T10:45:22;1.58;;;1.25;;
31798;SDS011;18374;51.136;3.502;2023-11-18T10:47:54;14.23;;;1.85;;
31798;SDS011;18374;51.136;3.502;2023-11-18T10:50:24;3.35;;;1.30;;
31798;SDS011;18374;51.136;3.502;2023-11-18T10:53:02;1.40;;;1.30;;
31798;SDS011;18374;51.136;3.502;2023-11-18T10:55:38;3.42;;;2.45;;
31798;SDS011;18374;51.136;3.502;2023-11-18T10:58:07;1.88;;;1.67;;
31798;SDS011;18374;51.136;3.502;2023-11-18T11:00:48;4.22;;;1.80;;
31798;SDS011;18374;51.136;3.502;2023-11-18T11:03:18;2.15;;;1.40;;
31798;SDS011;18374;51.136;3.502;2023-11-18T11:05:46;1.98;;;1.17;;
31798;SDS011;18374;51.136;3.502;2023-11-18T11:08:16;2.35;;;1.20;;
31798;SDS011;18374;51.136;3.502;2023-11-18T11:10:58;2.03;;;1.42;;
31798;SDS011;18374;51.136;3.502;2023-11-18T11:13:30;5.10;;;1.67;;
31798;SDS011;18374;51.136;3.502;2023-11-18T11:15:59;2.47;;;1.50;;
31798;SDS011;18374;51.136;3.502;2023-11-18T11:18:31;1.95;;;1.10;;
31798;SDS011;18374;51.136;3.502;2023-11-18T11:23:51;2.72;;;1.45;;
31798;SDS011;18374;51.136;3.502;2023-11-18T11:29:47;1.02;;;0.70;;
31798;SDS011;18374;51.136;3.502;2023-11-18T11:32:28;5.40;;;1.40;;
31798;SDS011;18374;51.136;3.502;2023-11-18T11:35:22;2.20;;;1.40;;
31798;SDS011;18374;51.136;3.502;2023-11-18T11:37:57;2.67;;;0.90;;
31798;SDS011;18374;51.136;3.502;2023-11-18T11:40:31;1.15;;;1.05;;
31798;SDS011;18374;51.136;3.502;2023-11-18T11:43:01;5.88;;;1.10;;
31798;SDS011;18374;51.136;3.502;2023-11-18T11:45:32;5.38;;;1.35;;
31798;SDS011;18374;51.136;3.502;2023-11-18T11:48:02;1.13;;;0.80;;
31798;SDS011;18374;51.136;3.502;2023-11-18T11:53:49;0.60;;;0.60;;
31798;SDS011;18374;51.136;3.502;2023-11-18T11:56:56;9.90;;;0.85;;
31798;SDS011;18374;51.136;3.502;2023-11-18T11:59:34;0.90;;;0.85;;
31798;SDS011;18374;51.136;3.502;2023-11-18T12:02:48;1.13;;;0.70;;
31798;SDS011;18374;51.136;3.502;2023-11-18T12:06:03;0.52;;;0.50;;
31798;SDS011;18374;51.136;3.502;2023-11-18T12:09:29;0.85;;;0.70;;
31798;SDS011;18374;51.136;3.502;2023-11-18T12:12:47;0.52;;;0.50;;
31798;SDS011;18374;51.136;3.502;2023-11-18T12:16:01;1.42;;;0.63;;
31798;SDS011;18374;51.136;3.502;2023-11-18T12:19:31;2.38;;;0.70;;
31798;SDS011;18374;51.136;3.502;2023-11-18T12:23:05;0.75;;;0.55;;
31798;SDS011;18374;51.136;3.502;2023-11-18T12:26:37;1.73;;;0.90;;
31798;SDS011;18374;51.136;3.502;2023-11-18T12:40:53;0.50;;;0.47;;
31798;SDS011;18374;51.136;3.502;2023-11-18T12:44:10;0.85;;;0.80;;
31798;SDS011;18374;51.136;3.502;2023-11-18T12:47:51;0.82;;;0.60;;
31798;SDS011;18374;51.136;3.502;2023-11-18T12:51:13;0.60;;;0.60;;
31798;SDS011;18374;51.136;3.502;2023-11-18T12:54:28;0.60;;;0.50;;
31798;SDS011;18374;51.136;3.502;2023-11-18T12:57:46;1.17;;;0.65;;
31798;SDS011;18374;51.136;3.502;2023-11-18T13:00:20;1.27;;;0.80;;
31798;SDS011;18374;51.136;3.502;2023-11-18T13:02:54;1.33;;;0.70;;
31798;SDS011;18374;51.136;3.502;2023-11-18T13:05:25;1.23;;;1.00;;
31798;SDS011;18374;51.136;3.502;2023-11-18T13:07:57;1.08;;;0.98;;
31798;SDS011;18374;51.136;3.502;2023-11-18T13:10:26;1.05;;;0.80;;
31798;SDS011;18374;51.136;3.502;2023-11-18T13:12:54;0.88;;;0.80;;
31798;SDS011;18374;51.136;3.502;2023-11-18T13:15:25;0.90;;;0.80;;
31798;SDS011;18374;51.136;3.502;2023-11-18T13:17:59;0.75;;;0.57;;
31798;SDS011;18374;51.136;3.502;2023-11-18T13:20:29;1.45;;;0.80;;
31798;SDS011;18374;51.136;3.502;2023-11-18T13:23:00;1.40;;;1.00;;
31798;SDS011;18374;51.136;3.502;2023-11-18T13:25:36;0.82;;;0.75;;
31798;SDS011;18374;51.136;3.502;2023-11-18T13:28:08;1.60;;;1.10;;
31798;SDS011;18374;51.136;3.502;2023-11-18T13:30:37;0.65;;;0.65;;
31798;SDS011;18374;51.136;3.502;2023-11-18T13:33:07;1.45;;;0.88;;
31798;SDS011;18374;51.136;3.502;2023-11-18T13:35:35;1.00;;;0.82;;
31798;SDS011;18374;51.136;3.502;2023-11-18T13:38:03;1.00;;;0.90;;
31798;SDS011;18374;51.136;3.502;2023-11-18T13:40:45;1.55;;;1.17;;
31798;SDS011;18374;51.136;3.502;2023-11-18T13:43:14;9.55;;;5.03;;
31798;SDS011;18374;51.136;3.502;2023-11-18T13:45:43;11.68;;;5.78;;
31798;SDS011;18374;51.136;3.502;2023-11-18T13:48:14;5.72;;;4.03;;
31798;SDS011;18374;51.136;3.502;2023-11-18T13:50:44;13.70;;;6.70;;
31798;SDS011;18374;51.136;3.502;2023-11-18T13:53:12;6.13;;;3.85;;
31798;SDS011;18374;51.136;3.502;2023-11-18T13:55:40;9.23;;;3.85;;
31798;SDS011;18374;51.136;3.502;2023-11-18T13:58:08;8.98;;;3.65;;
31798;SDS011;18374;51.136;3.502;2023-11-18T14:00:37;1.35;;;1.05;;
31798;SDS011;18374;51.136;3.502;2023-11-18T14:03:06;1.73;;;1.60;;
31798;SDS011;18374;51.136;3.502;2023-11-18T14:05:39;4.50;;;3.65;;
31798;SDS011;18374;51.136;3.502;2023-11-18T14:08:06;1.83;;;1.52;;
31798;SDS011;18374;51.136;3.502;2023-11-18T14:10:37;4.70;;;2.15;;
31798;SDS011;18374;51.136;3.502;2023-11-18T14:13:07;3.30;;;2.10;;
31798;SDS011;18374;51.136;3.502;2023-11-18T14:15:40;2.53;;;1.50;;
31798;SDS011;18374;51.136;3.502;2023-11-18T14:18:11;5.05;;;2.10;;
31798;SDS011;18374;51.136;3.502;2023-11-18T14:20:40;3.30;;;2.13;;
31798;SDS011;18374;51.136;3.502;2023-11-18T14:23:08;1.50;;;1.40;;
31798;SDS011;18374;51.136;3.502;2023-11-18T14:25:36;4.25;;;2.60;;
31798;SDS011;18374;51.136;3.502;2023-11-18T14:28:05;2.63;;;1.85;;
31798;SDS011;18374;51.136;3.502;2023-11-18T14:30:36;2.55;;;2.30;;
31798;SDS011;18374;51.136;3.502;2023-11-18T14:33:04;3.10;;;1.95;;
31798;SDS011;18374;51.136;3.502;2023-11-18T14:35:34;3.65;;;1.42;;
31798;SDS011;18374;51.136;3.502;2023-11-18T14:38:02;4.28;;;2.47;;
31798;SDS011;18374;51.136;3.502;2023-11-18T14:40:30;3.05;;;1.85;;
31798;SDS011;18374;51.136;3.502;2023-11-18T14:42:59;7.47;;;2.35;;
31798;SDS011;18374;51.136;3.502;2023-11-18T14:45:28;5.20;;;2.70;;
31798;SDS011;18374;51.136;3.502;2023-11-18T14:47:56;4.35;;;2.65;;
31798;SDS011;18374;51.136;3.502;2023-11-18T14:50:24;2.97;;;2.47;;
31798;SDS011;18374;51.136;3.502;2023-11-18T14:52:54;2.08;;;1.77;;
31798;SDS011;18374;51.136;3.502;2023-11-18T14:55:30;1.98;;;1.75;;
31798;SDS011;18374;51.136;3.502;2023-11-18T14:57:59;3.05;;;2.22;;
31798;SDS011;18374;51.136;3.502;2023-11-18T15:00:27;4.55;;;2.28;;
31798;SDS011;18374;51.136;3.502;2023-11-18T15:02:59;1.77;;;1.35;;
31798;SDS011;18374;51.136;3.502;2023-11-18T15:05:27;2.17;;;1.90;;
31798;SDS011;18374;51.136;3.502;2023-11-18T15:07:56;4.47;;;1.88;;
31798;SDS011;18374;51.136;3.502;2023-11-18T15:10:28;2.22;;;2.00;;
31798;SDS011;18374;51.136;3.502;2023-11-18T15:12:58;2.33;;;1.92;;
31798;SDS011;18374;51.136;3.502;2023-11-18T15:15:29;3.53;;;1.42;;
31798;SDS011;18374;51.136;3.502;2023-11-18T15:18:00;2.50;;;2.10;;
31798;SDS011;18374;51.136;3.502;2023-11-18T15:20:36;2.05;;;1.77;;
31798;SDS011;18374;51.136;3.502;2023-11-18T15:23:10;2.08;;;1.63;;
31798;SDS011;18374;51.136;3.502;2023-11-18T15:25:39;1.98;;;1.77;;
31798;SDS011;18374;51.136;3.502;2023-11-18T15:28:08;8.70;;;2.15;;
31798;SDS011;18374;51.136;3.502;2023-11-18T15:30:37;2.88;;;1.98;;
31798;SDS011;18374;51.136;3.502;2023-11-18T15:33:06;1.95;;;1.63;;
31798;SDS011;18374;51.136;3.502;2023-11-18T15:35:37;2.70;;;2.03;;
31798;SDS011;18374;51.136;3.502;2023-11-18T15:38:05;3.97;;;2.53;;
31798;SDS011;18374;51.136;3.502;2023-11-18T15:40:37;2.97;;;1.60;;
31798;SDS011;18374;51.136;3.502;2023-11-18T15:43:05;2.75;;;2.13;;
31798;SDS011;18374;51.136;3.502;2023-11-18T15:45:33;2.47;;;1.90;;
31798;SDS011;18374;51.136;3.502;2023-11-18T15:48:01;2.25;;;2.00;;
31798;SDS011;18374;51.136;3.502;2023-11-18T15:50:32;3.22;;;2.17;;
31798;SDS011;18374;51.136;3.502;2023-11-18T15:53:05;3.25;;;1.85;;
31798;SDS011;18374;51.136;3.502;2023-11-18T15:55:33;9.20;;;2.35;;
31798;SDS011;18374;51.136;3.502;2023-11-18T15:58:04;2.45;;;1.75;;
31798;SDS011;18374;51.136;3.502;2023-11-18T16:00:32;7.07;;;1.73;;
31798;SDS011;18374;51.136;3.502;2023-11-18T16:03:00;5.57;;;2.05;;
31798;SDS011;18374;51.136;3.502;2023-11-18T16:05:29;3.08;;;1.95;;